sensor_id;sensor_type;location;lat;lon;timestamp;P1;durP1;ratioP1;P2;durP2;ratioP2
54853;SDS011;40747;49.480;8.658;2022-07-30T00:01:35;6.03;;;4.53;;
54853;SDS011;40747;49.480;8.658;2022-07-30T00:04:00;6.00;;;4.78;;
54853;SDS011;40747;49.480;8.658;2022-07-30T00:06:25;5.30;;;4.80;;
54853;SDS011;40747;49.480;8.658;2022-07-30T00:08:50;6.60;;;4.43;;
54853;SDS011;40747;49.480;8.658;2022-07-30T00:11:16;6.65;;;5.30;;
54853;SDS011;40747;49.480;8.658;2022-07-30T00:13:41;6.35;;;4.75;;
54853;SDS011;40747;49.480;8.658;2022-07-30T00:16:06;8.85;;;4.80;;
54853;SDS011;40747;49.480;8.658;2022-07-30T00:18:32;4.47;;;4.05;;
54853;SDS011;40747;49.480;8.658;2022-07-30T00:20:57;4.72;;;4.22;;
54853;SDS011;40747;49.480;8.658;2022-07-30T00:23:23;6.00;;;4.70;;
54853;SDS011;40747;49.480;8.658;2022-07-30T00:25:48;6.40;;;4.85;;
54853;SDS011;40747;49.480;8.658;2022-07-30T00:28:13;5.88;;;4.35;;
54853;SDS011;40747;49.480;8.658;2022-07-30T00:30:39;5.50;;;4.15;;
54853;SDS011;40747;49.480;8.658;2022-07-30T00:33:04;6.35;;;4.05;;
54853;SDS011;40747;49.480;8.658;2022-07-30T00:35:30;6.63;;;4.60;;
54853;SDS011;40747;49.480;8.658;2022-07-30T00:37:55;5.18;;;4.38;;
54853;SDS011;40747;49.480;8.658;2022-07-30T00:40:20;5.30;;;4.07;;
54853;SDS011;40747;49.480;8.658;2022-07-30T00:42:46;5.85;;;4.30;;
54853;SDS011;40747;49.480;8.658;2022-07-30T00:45:12;4.90;;;4.20;;
54853;SDS011;40747;49.480;8.658;2022-07-30T00:47:39;6.95;;;4.55;;
54853;SDS011;40747;49.480;8.658;2022-07-30T00:50:06;5.35;;;4.45;;
54853;SDS011;40747;49.480;8.658;2022-07-30T00:52:33;5.13;;;4.30;;
54853;SDS011;40747;49.480;8.658;2022-07-30T00:55:00;6.30;;;4.47;;
54853;SDS011;40747;49.480;8.658;2022-07-30T00:57:25;5.38;;;4.22;;
54853;SDS011;40747;49.480;8.658;2022-07-30T00:59:52;4.55;;;3.95;;
54853;SDS011;40747;49.480;8.658;2022-07-30T01:02:18;5.28;;;4.03;;
54853;SDS011;40747;49.480;8.658;2022-07-30T01:04:43;5.00;;;4.13;;
54853;SDS011;40747;49.480;8.658;2022-07-30T01:07:09;5.68;;;4.70;;
54853;SDS011;40747;49.480;8.658;2022-07-30T01:09:34;5.03;;;4.28;;
54853;SDS011;40747;49.480;8.658;2022-07-30T01:12:00;4.80;;;4.25;;
54853;SDS011;40747;49.480;8.658;2022-07-30T01:14:26;8.15;;;5.10;;
54853;SDS011;40747;49.480;8.658;2022-07-30T01:16:52;4.30;;;3.65;;
54853;SDS011;40747;49.480;8.658;2022-07-30T01:19:22;7.07;;;4.68;;
54853;SDS011;40747;49.480;8.658;2022-07-30T01:22:11;4.93;;;4.15;;
54853;SDS011;40747;49.480;8.658;2022-07-30T01:24:43;8.77;;;4.40;;
54853;SDS011;40747;49.480;8.658;2022-07-30T01:27:15;5.53;;;4.72;;
54853;SDS011;40747;49.480;8.658;2022-07-30T01:29:43;6.45;;;4.07;;
54853;SDS011;40747;49.480;8.658;2022-07-30T01:32:10;4.68;;;4.15;;
54853;SDS011;40747;49.480;8.658;2022-07-30T01:34:38;8.90;;;4.30;;
54853;SDS011;40747;49.480;8.658;2022-07-30T01:37:05;5.32;;;4.20;;
54853;SDS011;40747;49.480;8.658;2022-07-30T01:39:33;7.00;;;4.25;;
54853;SDS011;40747;49.480;8.658;2022-07-30T01:42:00;5.22;;;4.00;;
54853;SDS011;40747;49.480;8.658;2022-07-30T01:44:29;6.50;;;4.68;;
54853;SDS011;40747;49.480;8.658;2022-07-30T01:46:56;4.53;;;3.70;;
54853;SDS011;40747;49.480;8.658;2022-07-30T01:49:23;4.70;;;3.58;;
54853;SDS011;40747;49.480;8.658;2022-07-30T01:51:49;4.43;;;3.88;;
54853;SDS011;40747;49.480;8.658;2022-07-30T01:54:16;8.75;;;4.03;;
54853;SDS011;40747;49.480;8.658;2022-07-30T01:56:43;5.10;;;4.07;;
54853;SDS011;40747;49.480;8.658;2022-07-30T01:59:11;5.18;;;4.25;;
54853;SDS011;40747;49.480;8.658;2022-07-30T02:01:40;5.65;;;4.10;;
54853;SDS011;40747;49.480;8.658;2022-07-30T02:04:05;5.70;;;4.30;;
54853;SDS011;40747;49.480;8.658;2022-07-30T02:06:33;4.60;;;4.07;;
54853;SDS011;40747;49.480;8.658;2022-07-30T02:09:03;5.35;;;3.78;;
54853;SDS011;40747;49.480;8.658;2022-07-30T02:11:30;6.00;;;4.10;;
54853;SDS011;40747;49.480;8.658;2022-07-30T02:14:27;5.57;;;4.18;;
54853;SDS011;40747;49.480;8.658;2022-07-30T02:16:58;5.50;;;4.05;;
54853;SDS011;40747;49.480;8.658;2022-07-30T02:19:28;5.20;;;4.13;;
54853;SDS011;40747;49.480;8.658;2022-07-30T02:22:03;4.47;;;3.97;;
54853;SDS011;40747;49.480;8.658;2022-07-30T02:24:31;5.20;;;3.90;;
54853;SDS011;40747;49.480;8.658;2022-07-30T02:27:00;5.82;;;4.13;;
54853;SDS011;40747;49.480;8.658;2022-07-30T02:29:31;5.55;;;4.10;;
54853;SDS011;40747;49.480;8.658;2022-07-30T02:31:58;10.43;;;4.50;;
54853;SDS011;40747;49.480;8.658;2022-07-30T02:34:25;4.13;;;3.67;;
54853;SDS011;40747;49.480;8.658;2022-07-30T02:36:53;7.30;;;4.68;;
54853;SDS011;40747;49.480;8.658;2022-07-30T02:39:19;8.73;;;4.50;;
54853;SDS011;40747;49.480;8.658;2022-07-30T02:41:45;4.47;;;3.88;;
54853;SDS011;40747;49.480;8.658;2022-07-30T02:44:14;5.13;;;3.67;;
54853;SDS011;40747;49.480;8.658;2022-07-30T02:46:42;6.30;;;4.07;;
54853;SDS011;40747;49.480;8.658;2022-07-30T02:49:11;5.68;;;3.70;;
54853;SDS011;40747;49.480;8.658;2022-07-30T02:51:39;5.95;;;4.10;;
54853;SDS011;40747;49.480;8.658;2022-07-30T02:54:05;6.15;;;3.78;;
54853;SDS011;40747;49.480;8.658;2022-07-30T02:56:32;5.72;;;3.53;;
54853;SDS011;40747;49.480;8.658;2022-07-30T02:59:00;4.03;;;3.60;;
54853;SDS011;40747;49.480;8.658;2022-07-30T03:01:27;5.22;;;3.47;;
54853;SDS011;40747;49.480;8.658;2022-07-30T03:03:54;6.38;;;3.92;;
54853;SDS011;40747;49.480;8.658;2022-07-30T03:06:20;4.32;;;3.50;;
54853;SDS011;40747;49.480;8.658;2022-07-30T03:08:49;4.53;;;3.55;;
54853;SDS011;40747;49.480;8.658;2022-07-30T03:11:16;5.32;;;4.10;;
54853;SDS011;40747;49.480;8.658;2022-07-30T03:13:43;5.55;;;3.45;;
54853;SDS011;40747;49.480;8.658;2022-07-30T03:16:09;8.23;;;4.13;;
54853;SDS011;40747;49.480;8.658;2022-07-30T03:18:35;7.20;;;4.15;;
54853;SDS011;40747;49.480;8.658;2022-07-30T03:21:02;6.57;;;4.25;;
54853;SDS011;40747;49.480;8.658;2022-07-30T03:23:31;4.93;;;3.72;;
54853;SDS011;40747;49.480;8.658;2022-07-30T03:26:00;6.28;;;4.10;;
54853;SDS011;40747;49.480;8.658;2022-07-30T03:28:30;7.05;;;4.38;;
54853;SDS011;40747;49.480;8.658;2022-07-30T03:30:58;5.70;;;3.83;;
54853;SDS011;40747;49.480;8.658;2022-07-30T03:33:23;5.05;;;3.55;;
54853;SDS011;40747;49.480;8.658;2022-07-30T03:35:50;5.22;;;3.72;;
54853;SDS011;40747;49.480;8.658;2022-07-30T03:38:16;5.10;;;4.00;;
54853;SDS011;40747;49.480;8.658;2022-07-30T03:40:43;3.22;;;2.92;;
54853;SDS011;40747;49.480;8.658;2022-07-30T03:43:09;4.68;;;3.72;;
54853;SDS011;40747;49.480;8.658;2022-07-30T03:45:37;5.07;;;3.63;;
54853;SDS011;40747;49.480;8.658;2022-07-30T03:48:06;5.85;;;3.95;;
54853;SDS011;40747;49.480;8.658;2022-07-30T03:50:33;4.65;;;3.63;;
54853;SDS011;40747;49.480;8.658;2022-07-30T03:53:01;4.38;;;3.42;;
54853;SDS011;40747;49.480;8.658;2022-07-30T03:55:27;5.75;;;3.75;;
54853;SDS011;40747;49.480;8.658;2022-07-30T03:57:53;5.80;;;3.83;;
54853;SDS011;40747;49.480;8.658;2022-07-30T04:00:18;4.32;;;3.47;;
54853;SDS011;40747;49.480;8.658;2022-07-30T04:02:44;5.63;;;3.55;;
54853;SDS011;40747;49.480;8.658;2022-07-30T04:05:14;7.32;;;3.55;;
54853;SDS011;40747;49.480;8.658;2022-07-30T04:07:40;6.15;;;3.50;;
54853;SDS011;40747;49.480;8.658;2022-07-30T04:10:06;3.33;;;2.95;;
54853;SDS011;40747;49.480;8.658;2022-07-30T04:12:32;7.18;;;3.33;;
54853;SDS011;40747;49.480;8.658;2022-07-30T04:14:57;8.82;;;3.50;;
54853;SDS011;40747;49.480;8.658;2022-07-30T04:19:52;4.38;;;3.38;;
54853;SDS011;40747;49.480;8.658;2022-07-30T04:22:22;3.97;;;3.08;;
54853;SDS011;40747;49.480;8.658;2022-07-30T04:24:52;3.95;;;3.47;;
54853;SDS011;40747;49.480;8.658;2022-07-30T04:27:18;3.65;;;3.20;;
54853;SDS011;40747;49.480;8.658;2022-07-30T04:29:45;5.97;;;3.45;;
54853;SDS011;40747;49.480;8.658;2022-07-30T04:32:10;5.18;;;3.80;;
54853;SDS011;40747;49.480;8.658;2022-07-30T04:34:39;4.90;;;3.00;;
54853;SDS011;40747;49.480;8.658;2022-07-30T04:37:20;5.35;;;3.55;;
54853;SDS011;40747;49.480;8.658;2022-07-30T04:39:47;6.55;;;3.33;;
54853;SDS011;40747;49.480;8.658;2022-07-30T04:42:15;4.82;;;3.75;;
54853;SDS011;40747;49.480;8.658;2022-07-30T04:44:41;7.35;;;3.53;;
54853;SDS011;40747;49.480;8.658;2022-07-30T04:47:06;4.38;;;3.30;;
54853;SDS011;40747;49.480;8.658;2022-07-30T04:49:32;3.75;;;3.28;;
54853;SDS011;40747;49.480;8.658;2022-07-30T04:51:58;4.07;;;2.90;;
54853;SDS011;40747;49.480;8.658;2022-07-30T04:54:25;3.90;;;3.13;;
54853;SDS011;40747;49.480;8.658;2022-07-30T04:56:51;7.72;;;3.60;;
54853;SDS011;40747;49.480;8.658;2022-07-30T04:59:17;5.53;;;3.13;;
54853;SDS011;40747;49.480;8.658;2022-07-30T05:01:45;5.95;;;3.40;;
54853;SDS011;40747;49.480;8.658;2022-07-30T05:04:16;6.60;;;3.42;;
54853;SDS011;40747;49.480;8.658;2022-07-30T05:06:42;8.13;;;3.53;;
54853;SDS011;40747;49.480;8.658;2022-07-30T05:09:08;3.65;;;3.00;;
54853;SDS011;40747;49.480;8.658;2022-07-30T05:11:34;3.97;;;3.50;;
54853;SDS011;40747;49.480;8.658;2022-07-30T05:14:00;5.75;;;3.58;;
54853;SDS011;40747;49.480;8.658;2022-07-30T05:16:25;6.10;;;3.50;;
54853;SDS011;40747;49.480;8.658;2022-07-30T05:18:51;5.47;;;3.90;;
54853;SDS011;40747;49.480;8.658;2022-07-30T05:21:16;5.20;;;3.53;;
54853;SDS011;40747;49.480;8.658;2022-07-30T05:23:42;5.65;;;3.45;;
54853;SDS011;40747;49.480;8.658;2022-07-30T05:26:07;4.50;;;3.45;;
54853;SDS011;40747;49.480;8.658;2022-07-30T05:28:32;4.70;;;3.42;;
54853;SDS011;40747;49.480;8.658;2022-07-30T05:30:58;5.25;;;3.72;;
54853;SDS011;40747;49.480;8.658;2022-07-30T05:33:23;4.55;;;3.42;;
54853;SDS011;40747;49.480;8.658;2022-07-30T05:35:49;5.15;;;3.67;;
54853;SDS011;40747;49.480;8.658;2022-07-30T05:38:15;8.30;;;3.35;;
54853;SDS011;40747;49.480;8.658;2022-07-30T05:40:41;4.53;;;3.47;;
54853;SDS011;40747;49.480;8.658;2022-07-30T05:43:06;3.85;;;3.03;;
54853;SDS011;40747;49.480;8.658;2022-07-30T05:45:32;4.80;;;3.15;;
54853;SDS011;40747;49.480;8.658;2022-07-30T05:47:57;5.53;;;3.08;;
54853;SDS011;40747;49.480;8.658;2022-07-30T05:50:23;4.60;;;3.17;;
54853;SDS011;40747;49.480;8.658;2022-07-30T05:52:48;4.15;;;3.38;;
54853;SDS011;40747;49.480;8.658;2022-07-30T05:55:14;7.18;;;3.72;;
54853;SDS011;40747;49.480;8.658;2022-07-30T05:57:39;4.18;;;3.47;;
54853;SDS011;40747;49.480;8.658;2022-07-30T06:00:08;5.00;;;3.22;;
54853;SDS011;40747;49.480;8.658;2022-07-30T06:02:35;3.92;;;3.38;;
54853;SDS011;40747;49.480;8.658;2022-07-30T06:05:01;5.03;;;3.80;;
54853;SDS011;40747;49.480;8.658;2022-07-30T06:07:27;4.57;;;3.40;;
54853;SDS011;40747;49.480;8.658;2022-07-30T06:09:53;6.78;;;3.65;;
54853;SDS011;40747;49.480;8.658;2022-07-30T06:12:23;7.85;;;4.07;;
54853;SDS011;40747;49.480;8.658;2022-07-30T06:14:49;5.00;;;3.90;;
54853;SDS011;40747;49.480;8.658;2022-07-30T06:17:15;5.28;;;3.67;;
54853;SDS011;40747;49.480;8.658;2022-07-30T06:19:40;4.60;;;3.42;;
54853;SDS011;40747;49.480;8.658;2022-07-30T06:22:05;4.15;;;3.50;;
54853;SDS011;40747;49.480;8.658;2022-07-30T06:24:30;6.13;;;3.65;;
54853;SDS011;40747;49.480;8.658;2022-07-30T06:26:56;7.13;;;4.22;;
54853;SDS011;40747;49.480;8.658;2022-07-30T06:29:21;6.50;;;3.83;;
54853;SDS011;40747;49.480;8.658;2022-07-30T06:31:46;10.80;;;4.80;;
54853;SDS011;40747;49.480;8.658;2022-07-30T06:34:12;9.20;;;4.38;;
54853;SDS011;40747;49.480;8.658;2022-07-30T06:36:37;8.82;;;4.70;;
54853;SDS011;40747;49.480;8.658;2022-07-30T06:39:02;6.72;;;5.15;;
54853;SDS011;40747;49.480;8.658;2022-07-30T06:41:28;10.27;;;5.60;;
54853;SDS011;40747;49.480;8.658;2022-07-30T06:43:53;7.60;;;5.18;;
54853;SDS011;40747;49.480;8.658;2022-07-30T06:46:18;8.38;;;5.18;;
54853;SDS011;40747;49.480;8.658;2022-07-30T06:48:43;6.50;;;4.93;;
54853;SDS011;40747;49.480;8.658;2022-07-30T06:51:09;14.25;;;5.75;;
54853;SDS011;40747;49.480;8.658;2022-07-30T06:53:34;10.15;;;5.65;;
54853;SDS011;40747;49.480;8.658;2022-07-30T06:55:59;15.07;;;4.88;;
54853;SDS011;40747;49.480;8.658;2022-07-30T06:58:26;6.32;;;5.28;;
54853;SDS011;40747;49.480;8.658;2022-07-30T07:00:51;8.60;;;5.32;;
54853;SDS011;40747;49.480;8.658;2022-07-30T07:03:16;10.80;;;5.50;;
54853;SDS011;40747;49.480;8.658;2022-07-30T07:05:42;9.68;;;5.30;;
54853;SDS011;40747;49.480;8.658;2022-07-30T07:08:07;6.85;;;4.80;;
54853;SDS011;40747;49.480;8.658;2022-07-30T07:10:32;5.57;;;3.85;;
54853;SDS011;40747;49.480;8.658;2022-07-30T07:12:58;8.65;;;4.63;;
54853;SDS011;40747;49.480;8.658;2022-07-30T07:15:24;6.68;;;4.95;;
54853;SDS011;40747;49.480;8.658;2022-07-30T07:17:50;11.35;;;4.53;;
54853;SDS011;40747;49.480;8.658;2022-07-30T07:20:15;4.95;;;3.90;;
54853;SDS011;40747;49.480;8.658;2022-07-30T07:22:41;7.70;;;4.22;;
54853;SDS011;40747;49.480;8.658;2022-07-30T07:25:06;8.70;;;5.10;;
54853;SDS011;40747;49.480;8.658;2022-07-30T07:27:32;6.35;;;4.47;;
54853;SDS011;40747;49.480;8.658;2022-07-30T07:29:58;4.60;;;3.70;;
54853;SDS011;40747;49.480;8.658;2022-07-30T07:32:23;9.52;;;4.18;;
54853;SDS011;40747;49.480;8.658;2022-07-30T07:34:48;10.07;;;4.38;;
54853;SDS011;40747;49.480;8.658;2022-07-30T07:37:14;7.53;;;5.00;;
54853;SDS011;40747;49.480;8.658;2022-07-30T07:39:40;8.90;;;5.63;;
54853;SDS011;40747;49.480;8.658;2022-07-30T07:42:06;7.28;;;5.15;;
54853;SDS011;40747;49.480;8.658;2022-07-30T07:44:31;6.18;;;4.05;;
54853;SDS011;40747;49.480;8.658;2022-07-30T07:46:56;10.93;;;5.85;;
54853;SDS011;40747;49.480;8.658;2022-07-30T07:49:21;11.52;;;5.13;;
54853;SDS011;40747;49.480;8.658;2022-07-30T07:51:47;8.10;;;5.10;;
54853;SDS011;40747;49.480;8.658;2022-07-30T07:54:12;7.55;;;4.95;;
54853;SDS011;40747;49.480;8.658;2022-07-30T07:56:37;6.75;;;4.97;;
54853;SDS011;40747;49.480;8.658;2022-07-30T07:59:03;6.15;;;4.53;;
54853;SDS011;40747;49.480;8.658;2022-07-30T08:01:28;8.68;;;4.93;;
54853;SDS011;40747;49.480;8.658;2022-07-30T08:03:53;8.80;;;4.50;;
54853;SDS011;40747;49.480;8.658;2022-07-30T08:06:18;6.93;;;4.22;;
54853;SDS011;40747;49.480;8.658;2022-07-30T08:08:44;5.80;;;4.43;;
54853;SDS011;40747;49.480;8.658;2022-07-30T08:11:09;7.95;;;5.47;;
54853;SDS011;40747;49.480;8.658;2022-07-30T08:13:34;8.40;;;5.10;;
54853;SDS011;40747;49.480;8.658;2022-07-30T08:16:00;7.80;;;4.95;;
54853;SDS011;40747;49.480;8.658;2022-07-30T08:18:26;6.45;;;4.60;;
54853;SDS011;40747;49.480;8.658;2022-07-30T08:20:51;8.68;;;4.35;;
54853;SDS011;40747;49.480;8.658;2022-07-30T08:23:16;8.98;;;4.60;;
54853;SDS011;40747;49.480;8.658;2022-07-30T08:25:43;7.93;;;4.90;;
54853;SDS011;40747;49.480;8.658;2022-07-30T08:28:09;7.57;;;5.00;;
54853;SDS011;40747;49.480;8.658;2022-07-30T08:30:34;9.45;;;6.10;;
54853;SDS011;40747;49.480;8.658;2022-07-30T08:33:00;9.27;;;6.10;;
54853;SDS011;40747;49.480;8.658;2022-07-30T08:35:25;7.70;;;4.90;;
54853;SDS011;40747;49.480;8.658;2022-07-30T08:37:50;9.77;;;5.93;;
54853;SDS011;40747;49.480;8.658;2022-07-30T08:40:19;6.47;;;5.18;;
54853;SDS011;40747;49.480;8.658;2022-07-30T08:42:44;13.30;;;5.97;;
54853;SDS011;40747;49.480;8.658;2022-07-30T08:45:13;8.07;;;4.80;;
54853;SDS011;40747;49.480;8.658;2022-07-30T08:47:41;9.43;;;6.32;;
54853;SDS011;40747;49.480;8.658;2022-07-30T08:50:09;8.35;;;5.28;;
54853;SDS011;40747;49.480;8.658;2022-07-30T08:52:35;8.52;;;5.90;;
54853;SDS011;40747;49.480;8.658;2022-07-30T08:55:03;9.38;;;5.45;;
54853;SDS011;40747;49.480;8.658;2022-07-30T08:57:29;10.15;;;5.45;;
54853;SDS011;40747;49.480;8.658;2022-07-30T08:59:58;12.82;;;6.22;;
54853;SDS011;40747;49.480;8.658;2022-07-30T09:02:24;9.27;;;6.68;;
54853;SDS011;40747;49.480;8.658;2022-07-30T09:04:50;10.43;;;5.80;;
54853;SDS011;40747;49.480;8.658;2022-07-30T09:07:15;11.95;;;6.13;;
54853;SDS011;40747;49.480;8.658;2022-07-30T09:09:40;6.85;;;5.20;;
54853;SDS011;40747;49.480;8.658;2022-07-30T09:17:59;9.55;;;5.68;;
54853;SDS011;40747;49.480;8.658;2022-07-30T09:20:27;10.40;;;5.15;;
54853;SDS011;40747;49.480;8.658;2022-07-30T09:22:58;9.85;;;5.65;;
54853;SDS011;40747;49.480;8.658;2022-07-30T09:25:40;12.88;;;6.90;;
54853;SDS011;40747;49.480;8.658;2022-07-30T09:28:07;7.97;;;5.53;;
54853;SDS011;40747;49.480;8.658;2022-07-30T09:30:43;6.60;;;5.25;;
54853;SDS011;40747;49.480;8.658;2022-07-30T09:33:37;8.20;;;5.43;;
54853;SDS011;40747;49.480;8.658;2022-07-30T09:36:05;8.23;;;4.80;;
54853;SDS011;40747;49.480;8.658;2022-07-30T09:41:14;7.82;;;5.60;;
54853;SDS011;40747;49.480;8.658;2022-07-30T09:43:42;5.63;;;3.90;;
54853;SDS011;40747;49.480;8.658;2022-07-30T09:46:12;5.93;;;3.28;;
54853;SDS011;40747;49.480;8.658;2022-07-30T09:48:39;5.45;;;3.58;;
54853;SDS011;40747;49.480;8.658;2022-07-30T09:51:04;4.50;;;3.67;;
54853;SDS011;40747;49.480;8.658;2022-07-30T09:53:30;7.97;;;3.65;;
54853;SDS011;40747;49.480;8.658;2022-07-30T09:55:56;5.32;;;3.58;;
54853;SDS011;40747;49.480;8.658;2022-07-30T09:58:22;7.30;;;3.22;;
54853;SDS011;40747;49.480;8.658;2022-07-30T10:00:47;4.00;;;2.90;;
54853;SDS011;40747;49.480;8.658;2022-07-30T10:03:13;5.57;;;3.08;;
54853;SDS011;40747;49.480;8.658;2022-07-30T10:05:49;4.60;;;2.67;;
54853;SDS011;40747;49.480;8.658;2022-07-30T10:08:16;6.15;;;2.83;;
54853;SDS011;40747;49.480;8.658;2022-07-30T10:10:41;6.07;;;2.63;;
54853;SDS011;40747;49.480;8.658;2022-07-30T10:13:08;5.63;;;3.58;;
54853;SDS011;40747;49.480;8.658;2022-07-30T10:15:35;5.53;;;3.00;;
54853;SDS011;40747;49.480;8.658;2022-07-30T10:18:01;3.97;;;3.05;;
54853;SDS011;40747;49.480;8.658;2022-07-30T10:20:28;5.60;;;3.25;;
54853;SDS011;40747;49.480;8.658;2022-07-30T10:22:54;4.25;;;3.08;;
54853;SDS011;40747;49.480;8.658;2022-07-30T10:25:20;4.05;;;2.63;;
54853;SDS011;40747;49.480;8.658;2022-07-30T10:27:48;4.97;;;2.80;;
54853;SDS011;40747;49.480;8.658;2022-07-30T10:30:13;5.43;;;3.42;;
54853;SDS011;40747;49.480;8.658;2022-07-30T10:32:39;4.32;;;2.90;;
54853;SDS011;40747;49.480;8.658;2022-07-30T10:35:05;3.80;;;3.05;;
54853;SDS011;40747;49.480;8.658;2022-07-30T10:37:32;3.10;;;2.67;;
54853;SDS011;40747;49.480;8.658;2022-07-30T10:42:37;5.88;;;2.70;;
54853;SDS011;40747;49.480;8.658;2022-07-30T10:47:46;6.18;;;2.63;;
54853;SDS011;40747;49.480;8.658;2022-07-30T10:50:14;3.55;;;1.85;;
54853;SDS011;40747;49.480;8.658;2022-07-30T10:52:48;3.22;;;2.80;;
54853;SDS011;40747;49.480;8.658;2022-07-30T10:55:27;7.72;;;2.80;;
54853;SDS011;40747;49.480;8.658;2022-07-30T10:57:57;6.28;;;2.05;;
54853;SDS011;40747;49.480;8.658;2022-07-30T11:00:29;2.53;;;2.33;;
54853;SDS011;40747;49.480;8.658;2022-07-30T11:03:12;5.43;;;2.00;;
54853;SDS011;40747;49.480;8.658;2022-07-30T11:05:39;2.75;;;2.25;;
54853;SDS011;40747;49.480;8.658;2022-07-30T11:11:05;2.40;;;2.00;;
54853;SDS011;40747;49.480;8.658;2022-07-30T11:13:58;4.00;;;2.05;;
54853;SDS011;40747;49.480;8.658;2022-07-30T11:19:06;3.05;;;2.00;;
54853;SDS011;40747;49.480;8.658;2022-07-30T11:21:31;6.15;;;2.10;;
54853;SDS011;40747;49.480;8.658;2022-07-30T11:23:57;2.72;;;1.70;;
54853;SDS011;40747;49.480;8.658;2022-07-30T11:29:05;2.25;;;1.98;;
54853;SDS011;40747;49.480;8.658;2022-07-30T11:31:35;5.03;;;2.03;;
54853;SDS011;40747;49.480;8.658;2022-07-30T11:34:23;2.85;;;1.92;;
54853;SDS011;40747;49.480;8.658;2022-07-30T11:37:10;4.15;;;2.30;;
54853;SDS011;40747;49.480;8.658;2022-07-30T11:42:27;3.78;;;1.80;;
54853;SDS011;40747;49.480;8.658;2022-07-30T11:47:47;5.38;;;1.92;;
54853;SDS011;40747;49.480;8.658;2022-07-30T11:52:48;3.78;;;1.80;;
54853;SDS011;40747;49.480;8.658;2022-07-30T11:55:21;2.40;;;2.00;;
54853;SDS011;40747;49.480;8.658;2022-07-30T11:57:51;1.85;;;1.60;;
54853;SDS011;40747;49.480;8.658;2022-07-30T12:00:18;2.95;;;1.90;;
54853;SDS011;40747;49.480;8.658;2022-07-30T12:02:44;3.47;;;2.00;;
54853;SDS011;40747;49.480;8.658;2022-07-30T12:05:10;3.33;;;2.15;;
54853;SDS011;40747;49.480;8.658;2022-07-30T12:07:35;2.60;;;1.90;;
54853;SDS011;40747;49.480;8.658;2022-07-30T12:13:14;1.90;;;1.65;;
54853;SDS011;40747;49.480;8.658;2022-07-30T12:15:44;3.40;;;2.00;;
54853;SDS011;40747;49.480;8.658;2022-07-30T12:18:11;5.45;;;2.10;;
54853;SDS011;40747;49.480;8.658;2022-07-30T12:20:40;3.25;;;1.92;;
54853;SDS011;40747;49.480;8.658;2022-07-30T12:23:10;2.47;;;1.83;;
54853;SDS011;40747;49.480;8.658;2022-07-30T12:25:42;1.65;;;1.55;;
54853;SDS011;40747;49.480;8.658;2022-07-30T12:28:08;3.70;;;1.77;;
54853;SDS011;40747;49.480;8.658;2022-07-30T12:30:38;2.58;;;1.83;;
54853;SDS011;40747;49.480;8.658;2022-07-30T12:33:04;3.20;;;2.30;;
54853;SDS011;40747;49.480;8.658;2022-07-30T12:35:46;2.08;;;1.88;;
54853;SDS011;40747;49.480;8.658;2022-07-30T12:38:20;3.25;;;1.77;;
54853;SDS011;40747;49.480;8.658;2022-07-30T12:40:57;2.10;;;1.90;;
54853;SDS011;40747;49.480;8.658;2022-07-30T12:46:17;5.35;;;2.05;;
54853;SDS011;40747;49.480;8.658;2022-07-30T12:48:48;1.90;;;1.63;;
54853;SDS011;40747;49.480;8.658;2022-07-30T12:51:14;4.28;;;1.90;;
54853;SDS011;40747;49.480;8.658;2022-07-30T12:53:39;2.70;;;1.83;;
54853;SDS011;40747;49.480;8.658;2022-07-30T12:56:21;2.30;;;1.92;;
54853;SDS011;40747;49.480;8.658;2022-07-30T12:58:48;4.93;;;2.20;;
54853;SDS011;40747;49.480;8.658;2022-07-30T13:01:14;3.95;;;1.90;;
54853;SDS011;40747;49.480;8.658;2022-07-30T13:03:40;5.93;;;2.13;;
54853;SDS011;40747;49.480;8.658;2022-07-30T13:06:13;2.53;;;1.80;;
54853;SDS011;40747;49.480;8.658;2022-07-30T13:08:44;1.63;;;1.50;;
54853;SDS011;40747;49.480;8.658;2022-07-30T13:11:20;2.65;;;2.00;;
54853;SDS011;40747;49.480;8.658;2022-07-30T13:14:06;1.85;;;1.75;;
54853;SDS011;40747;49.480;8.658;2022-07-30T13:16:33;4.07;;;2.17;;
54853;SDS011;40747;49.480;8.658;2022-07-30T13:18:59;5.82;;;1.85;;
54853;SDS011;40747;49.480;8.658;2022-07-30T13:21:26;2.40;;;1.90;;
54853;SDS011;40747;49.480;8.658;2022-07-30T13:23:52;2.15;;;1.95;;
54853;SDS011;40747;49.480;8.658;2022-07-30T13:26:17;2.78;;;1.67;;
54853;SDS011;40747;49.480;8.658;2022-07-30T13:28:42;1.70;;;1.60;;
54853;SDS011;40747;49.480;8.658;2022-07-30T13:31:10;2.10;;;1.90;;
54853;SDS011;40747;49.480;8.658;2022-07-30T13:33:36;3.50;;;1.80;;
54853;SDS011;40747;49.480;8.658;2022-07-30T13:36:03;2.47;;;2.10;;
54853;SDS011;40747;49.480;8.658;2022-07-30T13:38:29;1.92;;;1.70;;
54853;SDS011;40747;49.480;8.658;2022-07-30T13:40:55;3.05;;;1.67;;
54853;SDS011;40747;49.480;8.658;2022-07-30T13:43:20;3.28;;;1.75;;
54853;SDS011;40747;49.480;8.658;2022-07-30T13:45:46;2.60;;;1.85;;
54853;SDS011;40747;49.480;8.658;2022-07-30T13:48:12;2.85;;;1.45;;
54853;SDS011;40747;49.480;8.658;2022-07-30T13:50:38;3.38;;;1.63;;
54853;SDS011;40747;49.480;8.658;2022-07-30T13:53:04;2.63;;;1.63;;
54853;SDS011;40747;49.480;8.658;2022-07-30T13:55:30;2.15;;;1.65;;
54853;SDS011;40747;49.480;8.658;2022-07-30T13:57:55;2.30;;;1.77;;
54853;SDS011;40747;49.480;8.658;2022-07-30T14:00:21;3.15;;;1.70;;
54853;SDS011;40747;49.480;8.658;2022-07-30T14:02:47;3.22;;;1.83;;
54853;SDS011;40747;49.480;8.658;2022-07-30T14:05:12;2.70;;;1.67;;
54853;SDS011;40747;49.480;8.658;2022-07-30T14:07:38;4.40;;;1.73;;
54853;SDS011;40747;49.480;8.658;2022-07-30T14:10:05;2.35;;;1.40;;
54853;SDS011;40747;49.480;8.658;2022-07-30T14:12:32;3.70;;;2.08;;
54853;SDS011;40747;49.480;8.658;2022-07-30T14:14:58;1.20;;;1.10;;
54853;SDS011;40747;49.480;8.658;2022-07-30T14:17:23;1.88;;;1.77;;
54853;SDS011;40747;49.480;8.658;2022-07-30T14:19:49;2.20;;;1.55;;
54853;SDS011;40747;49.480;8.658;2022-07-30T14:22:18;2.40;;;1.40;;
54853;SDS011;40747;49.480;8.658;2022-07-30T14:24:44;1.58;;;1.40;;
54853;SDS011;40747;49.480;8.658;2022-07-30T14:27:09;2.63;;;1.10;;
54853;SDS011;40747;49.480;8.658;2022-07-30T14:29:35;2.17;;;1.35;;
54853;SDS011;40747;49.480;8.658;2022-07-30T14:32:00;2.13;;;1.40;;
54853;SDS011;40747;49.480;8.658;2022-07-30T14:34:25;2.22;;;1.52;;
54853;SDS011;40747;49.480;8.658;2022-07-30T14:36:50;1.67;;;1.33;;
54853;SDS011;40747;49.480;8.658;2022-07-30T14:39:16;3.33;;;1.20;;
54853;SDS011;40747;49.480;8.658;2022-07-30T14:41:42;2.55;;;1.42;;
54853;SDS011;40747;49.480;8.658;2022-07-30T14:44:07;3.20;;;1.43;;
54853;SDS011;40747;49.480;8.658;2022-07-30T14:46:36;1.48;;;1.20;;
54853;SDS011;40747;49.480;8.658;2022-07-30T14:49:01;2.35;;;0.98;;
54853;SDS011;40747;49.480;8.658;2022-07-30T14:51:27;1.45;;;1.10;;
54853;SDS011;40747;49.480;8.658;2022-07-30T14:53:52;1.73;;;1.10;;
54853;SDS011;40747;49.480;8.658;2022-07-30T14:56:18;1.77;;;0.90;;
54853;SDS011;40747;49.480;8.658;2022-07-30T14:58:43;2.45;;;0.90;;
54853;SDS011;40747;49.480;8.658;2022-07-30T15:01:09;1.45;;;0.90;;
54853;SDS011;40747;49.480;8.658;2022-07-30T15:03:34;1.83;;;0.77;;
54853;SDS011;40747;49.480;8.658;2022-07-30T15:06:00;3.35;;;0.77;;
54853;SDS011;40747;49.480;8.658;2022-07-30T15:08:26;1.30;;;0.82;;
54853;SDS011;40747;49.480;8.658;2022-07-30T15:10:51;1.15;;;0.70;;
54853;SDS011;40747;49.480;8.658;2022-07-30T15:13:17;0.73;;;0.70;;
54853;SDS011;40747;49.480;8.658;2022-07-30T15:15:42;1.50;;;0.40;;
54853;SDS011;40747;49.480;8.658;2022-07-30T15:18:07;1.80;;;0.90;;
54853;SDS011;40747;49.480;8.658;2022-07-30T15:20:33;1.38;;;0.70;;
54853;SDS011;40747;49.480;8.658;2022-07-30T15:22:58;2.22;;;0.93;;
54853;SDS011;40747;49.480;8.658;2022-07-30T15:25:24;0.88;;;0.60;;
54853;SDS011;40747;49.480;8.658;2022-07-30T15:27:49;0.75;;;0.70;;